sensor_id;sensor_type;location;lat;lon;timestamp;pressure;altitude;pressure_sealevel;temperature;humidity
15914;BME280;8055;51.930;8.840;2022-12-07T00:01:16;99402.19;;;2.47;100.00
15914;BME280;8055;51.930;8.840;2022-12-07T00:03:44;99400.50;;;2.46;100.00
15914;BME280;8055;51.930;8.840;2022-12-07T00:06:12;99401.75;;;2.42;100.00
15914;BME280;8055;51.930;8.840;2022-12-07T00:08:38;99397.34;;;2.41;100.00
15914;BME280;8055;51.930;8.840;2022-12-07T00:11:09;99399.34;;;2.39;100.00
15914;BME280;8055;51.930;8.840;2022-12-07T00:13:35;99392.72;;;2.43;100.00
15914;BME280;8055;51.930;8.840;2022-12-07T00:16:06;99404.53;;;2.40;100.00
15914;BME280;8055;51.930;8.840;2022-12-07T00:18:32;99396.78;;;2.37;100.00
15914;BME280;8055;51.930;8.840;2022-12-07T00:21:08;99390.72;;;2.35;100.00
15914;BME280;8055;51.930;8.840;2022-12-07T00:23:34;99397.63;;;2.38;100.00
15914;BME280;8055;51.930;8.840;2022-12-07T00:26:14;99385.94;;;2.39;100.00
15914;BME280;8055;51.930;8.840;2022-12-07T00:28:40;99385.22;;;2.37;100.00
15914;BME280;8055;51.930;8.840;2022-12-07T00:31:08;99387.88;;;2.37;100.00
15914;BME280;8055;51.930;8.840;2022-12-07T00:33:35;99383.00;;;2.42;100.00
15914;BME280;8055;51.930;8.840;2022-12-07T00:36:01;99389.31;;;2.41;100.00
15914;BME280;8055;51.930;8.840;2022-12-07T00:38:29;99386.63;;;2.41;100.00
15914;BME280;8055;51.930;8.840;2022-12-07T00:40:59;99388.09;;;2.45;100.00
15914;BME280;8055;51.930;8.840;2022-12-07T00:43:25;99383.16;;;2.50;100.00
15914;BME280;8055;51.930;8.840;2022-12-07T00:45:51;99384.88;;;2.51;100.00
15914;BME280;8055;51.930;8.840;2022-12-07T00:48:16;99386.38;;;2.44;100.00
15914;BME280;8055;51.930;8.840;2022-12-07T00:50:42;99373.69;;;2.46;100.00
15914;BME280;8055;51.930;8.840;2022-12-07T00:53:07;99370.75;;;2.49;100.00
15914;BME280;8055;51.930;8.840;2022-12-07T00:55:36;99369.16;;;2.46;100.00
15914;BME280;8055;51.930;8.840;2022-12-07T00:58:02;99365.75;;;2.44;100.00
15914;BME280;8055;51.930;8.840;2022-12-07T01:00:27;99370.75;;;2.49;100.00
15914;BME280;8055;51.930;8.840;2022-12-07T01:02:53;99366.94;;;2.51;100.00
15914;BME280;8055;51.930;8.840;2022-12-07T01:05:18;99367.53;;;2.55;100.00
15914;BME280;8055;51.930;8.840;2022-12-07T01:07:44;99364.28;;;2.51;100.00
15914;BME280;8055;51.930;8.840;2022-12-07T01:10:10;99365.84;;;2.54;100.00
15914;BME280;8055;51.930;8.840;2022-12-07T01:12:35;99371.19;;;2.54;100.00
15914;BME280;8055;51.930;8.840;2022-12-07T01:15:00;99369.38;;;2.54;100.00
15914;BME280;8055;51.930;8.840;2022-12-07T01:17:26;99376.41;;;2.55;100.00
15914;BME280;8055;51.930;8.840;2022-12-07T01:19:51;99375.09;;;2.50;100.00
15914;BME280;8055;51.930;8.840;2022-12-07T01:22:17;99373.88;;;2.54;100.00
15914;BME280;8055;51.930;8.840;2022-12-07T01:24:42;99370.59;;;2.50;100.00
15914;BME280;8055;51.930;8.840;2022-12-07T01:27:07;99371.78;;;2.58;100.00
15914;BME280;8055;51.930;8.840;2022-12-07T01:29:33;99371.78;;;2.58;100.00
15914;BME280;8055;51.930;8.840;2022-12-07T01:31:58;99374.56;;;2.56;100.00
15914;BME280;8055;51.930;8.840;2022-12-07T01:34:23;99380.34;;;2.51;100.00
15914;BME280;8055;51.930;8.840;2022-12-07T01:36:49;99382.03;;;2.52;100.00
15914;BME280;8055;51.930;8.840;2022-12-07T01:39:14;99379.94;;;2.56;100.00
15914;BME280;8055;51.930;8.840;2022-12-07T01:41:41;99380.25;;;2.63;100.00
15914;BME280;8055;51.930;8.840;2022-12-07T01:44:22;99381.97;;;2.64;100.00
15914;BME280;8055;51.930;8.840;2022-12-07T01:46:53;99373.03;;;2.63;100.00
15914;BME280;8055;51.930;8.840;2022-12-07T01:49:43;99365.88;;;2.64;100.00
15914;BME280;8055;51.930;8.840;2022-12-07T01:54:44;99374.91;;;2.72;100.00
15914;BME280;8055;51.930;8.840;2022-12-07T01:57:11;99378.31;;;2.74;100.00
15914;BME280;8055;51.930;8.840;2022-12-07T01:59:39;99369.28;;;2.75;100.00
15914;BME280;8055;51.930;8.840;2022-12-07T02:02:08;99380.00;;;2.75;100.00
15914;BME280;8055;51.930;8.840;2022-12-07T02:04:36;99374.53;;;2.77;100.00
15914;BME280;8055;51.930;8.840;2022-12-07T02:07:03;99375.38;;;2.77;100.00
15914;BME280;8055;51.930;8.840;2022-12-07T02:09:29;99369.72;;;2.71;100.00
15914;BME280;8055;51.930;8.840;2022-12-07T02:11:55;99364.63;;;2.68;100.00
15914;BME280;8055;51.930;8.840;2022-12-07T02:14:21;99362.66;;;2.70;100.00
15914;BME280;8055;51.930;8.840;2022-12-07T02:17:05;99363.78;;;2.67;100.00
15914;BME280;8055;51.930;8.840;2022-12-07T02:28:28;99357.28;;;2.70;100.00
15914;BME280;8055;51.930;8.840;2022-12-07T02:30:57;99352.22;;;2.67;100.00
15914;BME280;8055;51.930;8.840;2022-12-07T02:33:41;99357.84;;;2.64;100.00
15914;BME280;8055;51.930;8.840;2022-12-07T02:36:25;99352.59;;;2.62;100.00
15914;BME280;8055;51.930;8.840;2022-12-07T02:41:26;99352.16;;;2.57;100.00
15914;BME280;8055;51.930;8.840;2022-12-07T02:43:56;99349.06;;;2.62;100.00
15914;BME280;8055;51.930;8.840;2022-12-07T02:46:27;99343.41;;;2.55;100.00
15914;BME280;8055;51.930;8.840;2022-12-07T02:48:54;99352.44;;;2.54;100.00
15914;BME280;8055;51.930;8.840;2022-12-07T02:51:21;99344.41;;;2.54;100.00
15914;BME280;8055;51.930;8.840;2022-12-07T02:53:47;99341.25;;;2.49;100.00
15914;BME280;8055;51.930;8.840;2022-12-07T02:56:39;99345.38;;;2.53;100.00
15914;BME280;8055;51.930;8.840;2022-12-07T02:59:44;99343.41;;;2.55;100.00
15914;BME280;8055;51.930;8.840;2022-12-07T03:16:20;99333.78;;;2.52;100.00
15914;BME280;8055;51.930;8.840;2022-12-07T03:21:33;99330.41;;;2.50;100.00
15914;BME280;8055;51.930;8.840;2022-12-07T03:24:05;99334.06;;;2.49;100.00
15914;BME280;8055;51.930;8.840;2022-12-07T03:26:36;99331.97;;;2.53;100.00
15914;BME280;8055;51.930;8.840;2022-12-07T03:29:07;99332.22;;;2.50;100.00
15914;BME280;8055;51.930;8.840;2022-12-07T03:31:40;99329.69;;;2.48;100.00
15914;BME280;8055;51.930;8.840;2022-12-07T03:34:11;99325.75;;;2.52;100.00
15914;BME280;8055;51.930;8.840;2022-12-07T03:37:03;99326.50;;;2.64;100.00
15914;BME280;8055;51.930;8.840;2022-12-07T03:39:37;99321.84;;;2.66;100.00
15914;BME280;8055;51.930;8.840;2022-12-07T03:42:05;99322.41;;;2.60;100.00
15914;BME280;8055;51.930;8.840;2022-12-07T03:44:34;99320.81;;;2.48;100.00
15914;BME280;8055;51.930;8.840;2022-12-07T03:47:07;99322.03;;;2.44;100.00
15914;BME280;8055;51.930;8.840;2022-12-07T03:49:43;99323.88;;;2.43;100.00
15914;BME280;8055;51.930;8.840;2022-12-07T03:57:49;99332.50;;;2.47;100.00
15914;BME280;8055;51.930;8.840;2022-12-07T04:00:17;99327.56;;;2.42;100.00
15914;BME280;8055;51.930;8.840;2022-12-07T04:02:43;99328.97;;;2.46;100.00
15914;BME280;8055;51.930;8.840;2022-12-07T04:05:10;99323.03;;;2.43;100.00
15914;BME280;8055;51.930;8.840;2022-12-07T04:07:35;99323.03;;;2.43;100.00
15914;BME280;8055;51.930;8.840;2022-12-07T04:10:00;99327.28;;;2.45;100.00
15914;BME280;8055;51.930;8.840;2022-12-07T04:12:26;99326.88;;;2.50;100.00
15914;BME280;8055;51.930;8.840;2022-12-07T04:14:51;99321.78;;;2.47;100.00
15914;BME280;8055;51.930;8.840;2022-12-07T04:17:17;99323.88;;;2.43;100.00
15914;BME280;8055;51.930;8.840;2022-12-07T04:19:42;99323.31;;;2.40;100.00
15914;BME280;8055;51.930;8.840;2022-12-07T04:22:07;99331.66;;;2.46;100.00
15914;BME280;8055;51.930;8.840;2022-12-07T04:24:34;99327.41;;;2.44;100.00
15914;BME280;8055;51.930;8.840;2022-12-07T04:27:00;99327.56;;;2.42;100.00
15914;BME280;8055;51.930;8.840;2022-12-07T04:29:26;99329.50;;;2.40;100.00
15914;BME280;8055;51.930;8.840;2022-12-07T04:31:51;99321.66;;;2.48;100.00
15914;BME280;8055;51.930;8.840;2022-12-07T04:34:17;99332.81;;;2.53;100.00
15914;BME280;8055;51.930;8.840;2022-12-07T04:36:44;99325.03;;;2.50;100.00
15914;BME280;8055;51.930;8.840;2022-12-07T04:39:29;99329.28;;;2.53;100.00
15914;BME280;8055;51.930;8.840;2022-12-07T04:41:56;99322.34;;;2.50;100.00
15914;BME280;8055;51.930;8.840;2022-12-07T04:44:23;99332.50;;;2.47;100.00
15914;BME280;8055;51.930;8.840;2022-12-07T04:46:49;99330.22;;;2.42;100.00
15914;BME280;8055;51.930;8.840;2022-12-07T04:49:15;99329.41;;;2.42;100.00
15914;BME280;8055;51.930;8.840;2022-12-07T04:51:42;99335.03;;;2.39;100.00
15914;BME280;8055;51.930;8.840;2022-12-07T04:54:08;99330.66;;;2.47;100.00
15914;BME280;8055;51.930;8.840;2022-12-07T04:56:33;99327.59;;;2.52;100.00
15914;BME280;8055;51.930;8.840;2022-12-07T04:59:00;99324.66;;;2.55;100.00
15914;BME280;8055;51.930;8.840;2022-12-07T05:01:26;99326.22;;;2.58;100.00
15914;BME280;8055;51.930;8.840;2022-12-07T05:03:51;99316.44;;;2.57;100.00
15914;BME280;8055;51.930;8.840;2022-12-07T05:06:16;99321.25;;;2.53;100.00
15914;BME280;8055;51.930;8.840;2022-12-07T05:08:42;99316.44;;;2.57;100.00
15914;BME280;8055;51.930;8.840;2022-12-07T05:11:09;99319.41;;;2.53;100.00
15914;BME280;8055;51.930;8.840;2022-12-07T05:13:35;99320.84;;;2.58;100.00
15914;BME280;8055;51.930;8.840;2022-12-07T05:16:01;99324.94;;;2.62;100.00
15914;BME280;8055;51.930;8.840;2022-12-07T05:18:27;99322.69;;;2.57;100.00
15914;BME280;8055;51.930;8.840;2022-12-07T05:20:52;99314.91;;;2.54;100.00
15914;BME280;8055;51.930;8.840;2022-12-07T05:23:18;99317.59;;;2.54;100.00
15914;BME280;8055;51.930;8.840;2022-12-07T05:25:43;99319.28;;;2.55;100.00
15914;BME280;8055;51.930;8.840;2022-12-07T05:28:09;99324.75;;;2.53;100.00
15914;BME280;8055;51.930;8.840;2022-12-07T05:30:35;99326.47;;;2.54;100.00
15914;BME280;8055;51.930;8.840;2022-12-07T05:33:00;99323.34;;;2.49;100.00
15914;BME280;8055;51.930;8.840;2022-12-07T05:35:25;99324.91;;;2.52;100.00
15914;BME280;8055;51.930;8.840;2022-12-07T05:37:51;99321.38;;;2.51;100.00
15914;BME280;8055;51.930;8.840;2022-12-07T05:40:17;99323.63;;;2.46;100.00
15914;BME280;8055;51.930;8.840;2022-12-07T05:42:44;99319.09;;;2.47;100.00
15914;BME280;8055;51.930;8.840;2022-12-07T05:45:09;99318.41;;;2.45;100.00
15914;BME280;8055;51.930;8.840;2022-12-07T05:47:35;99316.69;;;2.44;100.00
15914;BME280;8055;51.930;8.840;2022-12-07T05:50:01;99314.84;;;2.44;100.00
15914;BME280;8055;51.930;8.840;2022-12-07T05:52:26;99311.78;;;2.49;100.00
15914;BME280;8055;51.930;8.840;2022-12-07T05:54:52;99310.47;;;2.43;100.00
15914;BME280;8055;51.930;8.840;2022-12-07T05:57:17;99315.00;;;2.43;100.00
15914;BME280;8055;51.930;8.840;2022-12-07T05:59:43;99308.53;;;2.45;100.00
15914;BME280;8055;51.930;8.840;2022-12-07T06:02:11;99309.63;;;2.43;100.00
15914;BME280;8055;51.930;8.840;2022-12-07T06:04:39;99304.28;;;2.43;100.00
15914;BME280;8055;51.930;8.840;2022-12-07T06:07:05;99315.13;;;2.41;100.00
15914;BME280;8055;51.930;8.840;2022-12-07T06:09:31;99307.81;;;2.43;100.00
15914;BME280;8055;51.930;8.840;2022-12-07T06:11:57;99316.03;;;2.51;100.00
15914;BME280;8055;51.930;8.840;2022-12-07T06:14:48;99311.06;;;2.47;100.00
15914;BME280;8055;51.930;8.840;2022-12-07T06:17:15;99312.78;;;2.48;100.00
15914;BME280;8055;51.930;8.840;2022-12-07T06:19:40;99311.91;;;2.47;100.00
15914;BME280;8055;51.930;8.840;2022-12-07T06:22:06;99319.53;;;2.42;100.00
15914;BME280;8055;51.930;8.840;2022-12-07T06:24:33;99318.53;;;2.43;100.00
15914;BME280;8055;51.930;8.840;2022-12-07T06:26:58;99318.97;;;2.48;100.00
15914;BME280;8055;51.930;8.840;2022-12-07T06:29:24;99315.13;;;2.41;100.00
15914;BME280;8055;51.930;8.840;2022-12-07T06:31:49;99316.13;;;2.40;100.00
15914;BME280;8055;51.930;8.840;2022-12-07T06:34:17;99320.75;;;2.38;100.00
15914;BME280;8055;51.930;8.840;2022-12-07T06:36:43;99311.88;;;2.38;100.00
15914;BME280;8055;51.930;8.840;2022-12-07T06:39:09;99317.09;;;2.39;100.00
15914;BME280;8055;51.930;8.840;2022-12-07T06:41:38;99310.72;;;2.30;100.00
15914;BME280;8055;51.930;8.840;2022-12-07T06:44:05;99310.97;;;2.27;100.00
15914;BME280;8055;51.930;8.840;2022-12-07T06:46:31;99312.78;;;2.17;100.00
15914;BME280;8055;51.930;8.840;2022-12-07T06:48:56;99315.13;;;2.11;100.00
15914;BME280;8055;51.930;8.840;2022-12-07T06:51:22;99316.81;;;2.12;100.00
15914;BME280;8055;51.930;8.840;2022-12-07T06:53:47;99321.34;;;2.11;100.00
15914;BME280;8055;51.930;8.840;2022-12-07T06:56:13;99324.75;;;2.13;100.00
15914;BME280;8055;51.930;8.840;2022-12-07T06:58:38;99324.75;;;2.13;100.00
15914;BME280;8055;51.930;8.840;2022-12-07T07:01:09;99327.13;;;2.16;100.00
15914;BME280;8055;51.930;8.840;2022-12-07T07:03:34;99329.13;;;2.14;100.00
15914;BME280;8055;51.930;8.840;2022-12-07T07:05:59;99333.75;;;2.12;100.00
15914;BME280;8055;51.930;8.840;2022-12-07T07:08:25;99328.28;;;2.14;100.00
15914;BME280;8055;51.930;8.840;2022-12-07T07:10:50;99332.63;;;2.15;100.00
15914;BME280;8055;51.930;8.840;2022-12-07T07:13:16;99335.88;;;2.18;100.00
15914;BME280;8055;51.930;8.840;2022-12-07T07:15:41;99334.91;;;2.19;100.00
15914;BME280;8055;51.930;8.840;2022-12-07T07:18:06;99336.63;;;2.20;100.00
15914;BME280;8055;51.930;8.840;2022-12-07T07:20:32;99350.13;;;2.19;100.00
15914;BME280;8055;51.930;8.840;2022-12-07T07:22:57;99342.25;;;2.17;100.00
15914;BME280;8055;51.930;8.840;2022-12-07T07:25:23;99345.88;;;2.16;100.00
15914;BME280;8055;51.930;8.840;2022-12-07T07:27:48;99347.03;;;2.14;100.00
15914;BME280;8055;51.930;8.840;2022-12-07T07:30:14;99342.50;;;2.14;100.00
15914;BME280;8055;51.930;8.840;2022-12-07T07:32:39;99341.50;;;2.15;100.00
15914;BME280;8055;51.930;8.840;2022-12-07T07:35:05;99347.34;;;2.20;100.00
15914;BME280;8055;51.930;8.840;2022-12-07T07:37:30;99345.88;;;2.16;100.00
15914;BME280;8055;51.930;8.840;2022-12-07T07:39:56;99348.13;;;2.11;100.00
15914;BME280;8055;51.930;8.840;2022-12-07T07:42:21;99345.72;;;2.08;100.00
15914;BME280;8055;51.930;8.840;2022-12-07T07:44:47;99345.19;;;2.14;100.00
15914;BME280;8055;51.930;8.840;2022-12-07T07:47:13;99338.13;;;2.13;100.00
15914;BME280;8055;51.930;8.840;2022-12-07T07:49:38;99345.72;;;2.08;100.00
15914;BME280;8055;51.930;8.840;2022-12-07T07:52:05;99347.59;;;2.17;100.00
15914;BME280;8055;51.930;8.840;2022-12-07T07:54:30;99345.31;;;2.13;100.00
15914;BME280;8055;51.930;8.840;2022-12-07T07:56:56;99353.47;;;2.11;100.00
15914;BME280;8055;51.930;8.840;2022-12-07T07:59:21;99353.47;;;2.11;100.00
15914;BME280;8055;51.930;8.840;2022-12-07T08:01:47;99361.25;;;2.14;100.00
15914;BME280;8055;51.930;8.840;2022-12-07T08:04:12;99356.00;;;2.13;100.00
15914;BME280;8055;51.930;8.840;2022-12-07T08:06:38;99366.28;;;2.07;100.00
15914;BME280;8055;51.930;8.840;2022-12-07T08:09:03;99356.44;;;2.08;100.00
15914;BME280;8055;51.930;8.840;2022-12-07T08:11:31;99353.28;;;2.03;100.00
15914;BME280;8055;51.930;8.840;2022-12-07T08:13:56;99358.53;;;2.04;100.00
15914;BME280;8055;51.930;8.840;2022-12-07T08:16:22;99359.63;;;2.02;100.00
15914;BME280;8055;51.930;8.840;2022-12-07T08:18:47;99352.31;;;2.04;100.00
15914;BME280;8055;51.930;8.840;2022-12-07T08:21:14;99367.25;;;2.06;100.00
15914;BME280;8055;51.930;8.840;2022-12-07T08:23:40;99368.38;;;2.04;100.00
15914;BME280;8055;51.930;8.840;2022-12-07T08:26:09;99363.03;;;2.04;100.00
15914;BME280;8055;51.930;8.840;2022-12-07T08:28:35;99366.63;;;2.14;100.00
15914;BME280;8055;51.930;8.840;2022-12-07T08:31:06;99366.78;;;2.22;100.00
15914;BME280;8055;51.930;8.840;2022-12-07T08:33:32;99370.91;;;2.26;100.00
15914;BME280;8055;51.930;8.840;2022-12-07T08:36:03;99365.66;;;2.25;100.00
15914;BME280;8055;51.930;8.840;2022-12-07T08:38:29;99371.50;;;2.30;100.00
15914;BME280;8055;51.930;8.840;2022-12-07T08:40:58;99366.25;;;2.28;100.00
15914;BME280;8055;51.930;8.840;2022-12-07T08:43:23;99365.41;;;2.28;100.00
15914;BME280;8055;51.930;8.840;2022-12-07T08:45:57;99362.03;;;2.26;100.00
15914;BME280;8055;51.930;8.840;2022-12-07T08:48:28;99361.16;;;2.25;100.00
15914;BME280;8055;51.930;8.840;2022-12-07T08:50:54;99366.00;;;2.31;100.00
15914;BME280;8055;51.930;8.840;2022-12-07T08:53:20;99361.09;;;2.37;100.00
15914;BME280;8055;51.930;8.840;2022-12-07T08:55:46;99363.03;;;2.35;100.00
15914;BME280;8055;51.930;8.840;2022-12-07T08:58:12;99362.34;;;2.33;100.00
15914;BME280;8055;51.930;8.840;2022-12-07T09:00:37;99366.88;;;2.32;100.00
15914;BME280;8055;51.930;8.840;2022-12-07T09:03:02;99359.22;;;2.27;100.00
15914;BME280;8055;51.930;8.840;2022-12-07T09:05:28;99366.13;;;2.30;100.00
15914;BME280;8055;51.930;8.840;2022-12-07T09:07:57;99361.88;;;2.27;100.00
15914;BME280;8055;51.930;8.840;2022-12-07T09:10:25;99355.53;;;2.28;100.00
15914;BME280;8055;51.930;8.840;2022-12-07T09:12:51;99357.25;;;2.29;100.00
15914;BME280;8055;51.930;8.840;2022-12-07T09:15:16;99358.47;;;2.25;100.00
15914;BME280;8055;51.930;8.840;2022-12-07T09:17:41;99353.13;;;2.25;100.00
15914;BME280;8055;51.930;8.840;2022-12-07T09:20:07;99360.19;;;2.26;100.00
15914;BME280;8055;51.930;8.840;2022-12-07T09:22:33;99362.09;;;2.36;100.00
15914;BME280;8055;51.930;8.840;2022-12-07T09:24:59;99358.38;;;2.27;100.00
15914;BME280;8055;51.930;8.840;2022-12-07T09:27:25;99357.09;;;2.31;100.00
15914;BME280;8055;51.930;8.840;2022-12-07T09:29:51;99360.50;;;2.33;100.00
15914;BME280;8055;51.930;8.840;2022-12-07T09:32:17;99368.97;;;2.38;100.00
15914;BME280;8055;51.930;8.840;2022-12-07T09:34:42;99367.34;;;2.47;100.00
15914;BME280;8055;51.930;8.840;2022-12-07T09:37:07;99370.75;;;2.49;100.00
15914;BME280;8055;51.930;8.840;2022-12-07T09:39:33;99367.38;;;2.57;100.00
15914;BME280;8055;51.930;8.840;2022-12-07T09:41:59;99381.25;;;2.62;100.00
15914;BME280;8055;51.930;8.840;2022-12-07T09:44:27;99374.03;;;2.62;100.00
15914;BME280;8055;51.930;8.840;2022-12-07T09:46:54;99367.56;;;2.65;100.00
15914;BME280;8055;51.930;8.840;2022-12-07T09:49:23;99374.34;;;2.69;100.00
15914;BME280;8055;51.930;8.840;2022-12-07T09:52:00;99372.69;;;2.77;100.00
15914;BME280;8055;51.930;8.840;2022-12-07T09:54:26;99364.78;;;2.76;100.00
15914;BME280;8055;51.930;8.840;2022-12-07T09:56:52;99361.44;;;2.84;100.00
15914;BME280;8055;51.930;8.840;2022-12-07T09:59:18;99368.44;;;2.75;100.00
15914;BME280;8055;51.930;8.840;2022-12-07T10:01:46;99368.97;;;2.69;100.00
15914;BME280;8055;51.930;8.840;2022-12-07T10:04:24;99368.03;;;2.70;100.00
15914;BME280;8055;51.930;8.840;2022-12-07T10:06:51;99374.03;;;2.62;100.00
15914;BME280;8055;51.930;8.840;2022-12-07T10:09:21;99367.84;;;2.62;100.00
15914;BME280;8055;51.930;8.840;2022-12-07T10:11:59;99368.28;;;2.67;100.00
15914;BME280;8055;51.930;8.840;2022-12-07T10:14:27;99365.72;;;2.65;100.00
15914;BME280;8055;51.930;8.840;2022-12-07T10:16:54;99374.88;;;2.63;100.00
15914;BME280;8055;51.930;8.840;2022-12-07T10:19:31;99370.69;;;2.70;100.00
15914;BME280;8055;51.930;8.840;2022-12-07T10:22:23;99364.91;;;2.74;100.00
15914;BME280;8055;51.930;8.840;2022-12-07T10:24:48;99358.25;;;2.69;100.00
15914;BME280;8055;51.930;8.840;2022-12-07T10:27:20;99351.47;;;2.65;100.00
15914;BME280;8055;51.930;8.840;2022-12-07T10:29:49;99357.41;;;2.68;100.00
15914;BME280;8055;51.930;8.840;2022-12-07T10:34:41;99354.91;;;2.76;100.00
15914;BME280;8055;51.930;8.840;2022-12-07T10:39:45;99350.66;;;2.74;100.00
15914;BME280;8055;51.930;8.840;2022-12-07T10:42:25;99336.28;;;2.75;100.00
15914;BME280;8055;51.930;8.840;2022-12-07T10:45:13;99328.97;;;2.87;100.00
15914;BME280;8055;51.930;8.840;2022-12-07T10:50:58;99332.50;;;2.87;100.00
15914;BME280;8055;51.930;8.840;2022-12-07T11:12:38;99319.41;;;3.04;100.00
15914;BME280;8055;51.930;8.840;2022-12-07T11:18:07;99320.69;;;3.09;100.00
15914;BME280;8055;51.930;8.840;2022-12-07T11:32:01;99305.16;;;3.22;100.00
15914;BME280;8055;51.930;8.840;2022-12-07T11:34:47;99295.41;;;3.21;100.00
15914;BME280;8055;51.930;8.840;2022-12-07T11:37:27;99290.78;;;3.23;100.00
15914;BME280;8055;51.930;8.840;2022-12-07T11:39:59;99284.69;;;3.21;100.00
15914;BME280;8055;51.930;8.840;2022-12-07T11:42:29;99279.03;;;3.24;100.00
15914;BME280;8055;51.930;8.840;2022-12-07T11:45:16;99285.25;;;3.35;100.00
15914;BME280;8055;51.930;8.840;2022-12-07T11:48:15;99282.56;;;3.35;100.00
15914;BME280;8055;51.930;8.840;2022-12-07T11:50:56;99274.78;;;3.41;100.00
15914;BME280;8055;51.930;8.840;2022-12-07T11:55:57;99265.59;;;3.44;100.00
15914;BME280;8055;51.930;8.840;2022-12-07T11:58:44;99265.47;;;3.45;100.00
15914;BME280;8055;51.930;8.840;2022-12-07T12:03:42;99267.88;;;3.48;100.00
15914;BME280;8055;51.930;8.840;2022-12-07T12:06:09;99266.75;;;3.51;100.00
15914;BME280;8055;51.930;8.840;2022-12-07T12:08:48;99260.09;;;3.55;100.00
15914;BME280;8055;51.930;8.840;2022-12-07T12:11:30;99263.19;;;3.60;100.00
15914;BME280;8055;51.930;8.840;2022-12-07T12:20:06;99260.22;;;3.63;100.00
15914;BME280;8055;51.930;8.840;2022-12-07T12:22:39;99266.28;;;3.65;100.00
15914;BME280;8055;51.930;8.840;2022-12-07T12:25:11;99253.88;;;3.64;100.00
15914;BME280;8055;51.930;8.840;2022-12-07T12:27:38;99259.25;;;3.64;100.00
15914;BME280;8055;51.930;8.840;2022-12-07T12:30:22;99257.81;;;3.80;100.00
15914;BME280;8055;51.930;8.840;2022-12-07T12:32:48;99251.72;;;3.78;100.00
15914;BME280;8055;51.930;8.840;2022-12-07T12:35:37;99255.66;;;3.83;100.00
15914;BME280;8055;51.930;8.840;2022-12-07T12:38:26;99253.25;;;3.90;100.00
15914;BME280;8055;51.930;8.840;2022-12-07T12:40:53;99252.66;;;3.96;100.00
15914;BME280;8055;51.930;8.840;2022-12-07T12:43:50;99247.25;;;4.06;100.00
15914;BME280;8055;51.930;8.840;2022-12-07T12:51:43;99246.78;;;4.10;100.00
15914;BME280;8055;51.930;8.840;2022-12-07T13:02:33;99233.56;;;3.99;100.00
15914;BME280;8055;51.930;8.840;2022-12-07T13:05:14;99228.34;;;3.88;100.00
15914;BME280;8055;51.930;8.840;2022-12-07T13:26:27;99230.53;;;3.75;100.00
15914;BME280;8055;51.930;8.840;2022-12-07T13:31:40;99226.72;;;3.67;100.00
15914;BME280;8055;51.930;8.840;2022-12-07T13:34:35;99227.41;;;3.69;100.00
15914;BME280;8055;51.930;8.840;2022-12-07T13:37:08;99223.59;;;3.72;100.00
15914;BME280;8055;51.930;8.840;2022-12-07T13:39:47;99228.84;;;3.74;100.00
15914;BME280;8055;51.930;8.840;2022-12-07T13:44:45;99221.06;;;3.70;100.00
15914;BME280;8055;51.930;8.840;2022-12-07T13:47:32;99215.84;;;3.69;100.00
15914;BME280;8055;51.930;8.840;2022-12-07T13:50:00;99210.91;;;3.64;100.00
15914;BME280;8055;51.930;8.840;2022-12-07T13:52:30;99206.97;;;3.59;100.00
15914;BME280;8055;51.930;8.840;2022-12-07T13:57:22;99214.75;;;3.52;100.00
15914;BME280;8055;51.930;8.840;2022-12-07T13:59:49;99205.56;;;3.55;100.00
15914;BME280;8055;51.930;8.840;2022-12-07T14:02:26;99204.84;;;3.53;100.00
15914;BME280;8055;51.930;8.840;2022-12-07T14:04:52;99204.72;;;3.54;100.00
15914;BME280;8055;51.930;8.840;2022-12-07T14:07:19;99209.78;;;3.57;100.00
15914;BME280;8055;51.930;8.840;2022-12-07T14:09:54;99202.03;;;3.54;100.00
15914;BME280;8055;51.930;8.840;2022-12-07T14:12:20;99208.66;;;3.50;100.00
15914;BME280;8055;51.930;8.840;2022-12-07T14:14:48;99204.31;;;3.49;100.00
15914;BME280;8055;51.930;8.840;2022-12-07T14:17:22;99203.31;;;3.50;100.00
15914;BME280;8055;51.930;8.840;2022-12-07T14:22:55;99206.81;;;3.51;100.00
15914;BME280;8055;51.930;8.840;2022-12-07T14:25:25;99208.00;;;3.48;100.00
15914;BME280;8055;51.930;8.840;2022-12-07T14:28:00;99199.66;;;3.51;100.00
15914;BME280;8055;51.930;8.840;2022-12-07T14:30:31;99193.31;;;3.42;100.00
15914;BME280;8055;51.930;8.840;2022-12-07T14:33:04;99191.59;;;3.41;100.00
15914;BME280;8055;51.930;8.840;2022-12-07T14:35:31;99181.00;;;3.40;100.00
15914;BME280;8055;51.930;8.840;2022-12-07T14:37:57;99185.66;;;3.38;100.00
15914;BME280;8055;51.930;8.840;2022-12-07T14:40:27;99186.66;;;3.37;100.00
15914;BME280;8055;51.930;8.840;2022-12-07T14:43:15;99186.81;;;3.25;100.00
15914;BME280;8055;51.930;8.840;2022-12-07T14:45:41;99178.50;;;3.19;100.00
15914;BME280;8055;51.930;8.840;2022-12-07T14:48:12;99184.13;;;3.16;100.00
15914;BME280;8055;51.930;8.840;2022-12-07T14:50:41;99180.19;;;3.10;100.00
15914;BME280;8055;51.930;8.840;2022-12-07T14:53:16;99188.13;;;3.02;100.00
15914;BME280;8055;51.930;8.840;2022-12-07T14:55:42;99189.53;;;2.96;100.00
15914;BME280;8055;51.930;8.840;2022-12-07T14:58:15;99195.88;;;2.95;100.00
15914;BME280;8055;51.930;8.840;2022-12-07T15:00:41;99197.00;;;2.93;100.00
15914;BME280;8055;51.930;8.840;2022-12-07T15:03:07;99184.72;;;2.90;100.00
15914;BME280;8055;51.930;8.840;2022-12-07T15:05:33;99180.19;;;2.91;100.00
15914;BME280;8055;51.930;8.840;2022-12-07T15:07:58;99179.50;;;2.89;100.00
15914;BME280;8055;51.930;8.840;2022-12-07T15:10:27;99181.63;;;2.85;100.00
15914;BME280;8055;51.930;8.840;2022-12-07T15:12:56;99175.56;;;2.83;100.00
15914;BME280;8055;51.930;8.840;2022-12-07T15:15:41;99182.75;;;2.83;100.00
15914;BME280;8055;51.930;8.840;2022-12-07T15:18:07;99177.69;;;2.80;100.00
15914;BME280;8055;51.930;8.840;2022-12-07T15:20:32;99179.63;;;2.77;100.00
15914;BME280;8055;51.930;8.840;2022-12-07T15:22:58;99186.28;;;2.83;100.00
15914;BME280;8055;51.930;8.840;2022-12-07T15:25:23;99175.84;;;2.80;100.00
15914;BME280;8055;51.930;8.840;2022-12-07T15:27:49;99177.13;;;2.76;100.00
15914;BME280;8055;51.930;8.840;2022-12-07T15:30:15;99173.84;;;2.72;100.00
15914;BME280;8055;51.930;8.840;2022-12-07T15:32:40;99180.19;;;2.71;100.00